Clear Sky Current Weather (METAR) For Antalya Airport

All times on the weather descriptions are local

Observed at 19:20 - (30 mins ago)

Clear Sky

33°C

Clear Sky
Clouds:
Wind: 020° at 10 knots, varying from 360° to 060
Visibility: Greater than 10km
QNH: 1010
Dew Point: -2°C
Runway in Use: Runways 36L/C/R

Sunrise Today: 06:24
Sunset Today: 19:31

Forecast Weather (TAF) For Antalya Airport

Issued at 03:00 - (1 day 7 hrs ago)


Runway in Use: Unable to determine, wind is clam

Forecast valid until 03:00 on Monday

METAR/TAF RAW METAR / TAF

LTAI 291620Z 02010KT 360V060 CAVOK 33/M02 Q1010 NOSIG

Weather Widget

Put weather from any of our airports on your website with our weather widget.

Find Another Search

Airport Search


Please Wait Please Wait - Loading
Close
Close

Login

Username:

Password:

Remember Me:

Remember me on this computer

Forgotten your password? Get a reset password sent to your registered e-mail address

Close

User Private Message

Subject:

Message: